RCKH

Kaohsiung International Airport

Kaohsiung City, Taiwan
TAF RCKH 141700Z 1418/1524 34004KT 7000 FEW015 SCT025 BKN080 TEMPO 1420/1501 5000 BR BECMG 1501/1503 30008KT BECMG 1510/1512 33004KT TEMPO 1518/1524 4500 HZ
Issued Valid From Valid To
Dec-14 @ 17:00 UTC
(5 hours ago)
Dec-14 @ 18:00 UTC
(4 hours ago)
Dec-16 @ 00:00 UTC
(-1 days ago)
Dec-14 @ 18:00 to Dec-15 @ 01:00
TAF RCKH 141700Z 1418/1524 34004KT 7000 FEW015 SCT025 BKN080
Wind Visibility Clouds
340° at 4 knots 7,001 meters
  • Few at 1,500' AGL
  • Scattered at 2,500' AGL
  • Broken at 8,000' AGL
Temporary Dec-14 @ 20:00 to Dec-15 @ 01:00
TEMPO 1420/1501 5000 BR
Visibility Conditions
5,005 meters
  • Mist
Becoming Dec-15 @ 01:00 to Dec-15 @ 10:00
BECMG 1501/1503 30008KT
Wind Visibility Clouds
300° at 8 knots 7,001 meters
  • Few at 1,500' AGL
  • Scattered at 2,500' AGL
  • Broken at 8,000' AGL
Becoming Dec-15 @ 10:00 to Dec-16 @ 00:00
BECMG 1510/1512 33004KT
Wind Visibility Clouds
330° at 4 knots 7,001 meters
  • Few at 1,500' AGL
  • Scattered at 2,500' AGL
  • Broken at 8,000' AGL
Temporary Dec-15 @ 18:00 to Dec-16 @ 00:00
TEMPO 1518/1524 4500 HZ
Visibility Conditions
4,506 meters
  • Haze
TAF RCKH 141700Z 1418/1524 34004KT 7000 FEW015 SCT025 BKN080 TEMPO 1420/1501 5000 BR BECMG 1501/1503 30008KT BECMG 1510/1512 33004KT TEMPO 1518/1524 4500 HZ
Issued Dec-14 @ 17:00 UTC
(5 hours ago)
Valid From Dec-14 @ 18:00 UTC
(4 hours ago)
Valid To Dec-16 @ 00:00 UTC
(-1 days ago)
Dec-14 @ 18:00 - Dec-15 @ 01:00
Wind Visibility
340° at 4 knots 7,001 meters
Clouds
  • Few at 1,500' AGL
  • Scattered at 2,500' AGL
  • Broken at 8,000' AGL
Temporary Dec-14 @ 20:00 - Dec-15 @ 01:00
Conditions
  • Mist
Becoming Dec-15 @ 01:00 - Dec-15 @ 10:00
Wind Visibility
300° at 8 knots 7,001 meters
Clouds
  • Few at 1,500' AGL
  • Scattered at 2,500' AGL
  • Broken at 8,000' AGL
Becoming Dec-15 @ 10:00 - Dec-16 @ 00:00
Wind Visibility
330° at 4 knots 7,001 meters
Clouds
  • Few at 1,500' AGL
  • Scattered at 2,500' AGL
  • Broken at 8,000' AGL
Temporary Dec-15 @ 18:00 - Dec-16 @ 00:00
Conditions
  • Haze